Meyersville, Texas
Current Conditions -  °F | °C
As of 8:51 AM on Thursday 23 Oct 2014 (Local Time) from KVCT Reporting Station
Haze Haze  
Wind Chill: 66°   Ceiling: Unl
Heat Index: 66°   Visibility: 6mi
Dew Point: 61°   Wind: 6mph
Humidity: 84%   Direction: 30°NNE
Pressure: 30.11"   Gusts: NA
Location:  28.93°N, 97.31°W
Report Text: KVCT 231351Z 03005KT 6SM HZ SCT065 19/16 A3011 RMK AO2 SLP193 T01890161
Loading
Personal Weather Stations






























Interactive Weather Map New forecast layout! Learn more

10-Day Weather Forecast

Advertisements
Track Severe Weather on mobile